createdAt,value
2023-03-25T00:04:51.258Z,11.55
2023-03-25T00:10:13.948Z,9.40
2023-03-25T00:15:36.224Z,9.87
2023-03-25T00:20:59.736Z,12.60
2023-03-25T00:26:22.126Z,7.72
2023-03-25T00:31:44.462Z,11.77
2023-03-25T00:37:06.755Z,14.27
2023-03-25T00:42:29.965Z,10.55
2023-03-25T00:47:52.263Z,10.93
2023-03-25T00:53:14.693Z,8.33
2023-03-25T00:58:36.961Z,10.10
2023-03-25T01:04:03.355Z,9.87
2023-03-25T01:15:01.308Z,9.83
2023-03-25T01:20:24.299Z,9.77
2023-03-25T01:25:46.749Z,11.27
2023-03-25T01:31:23.681Z,15.03
2023-03-25T01:36:47.973Z,10.43
2023-03-25T01:42:20.228Z,10.73
2023-03-25T01:47:42.666Z,11.47
2023-03-25T01:53:06.973Z,10.40
2023-03-25T01:58:32.330Z,11.90
2023-03-25T02:03:58.511Z,13.03
2023-03-25T02:09:24.319Z,9.10
2023-03-25T02:14:49.968Z,10.60
2023-03-25T02:20:42.775Z,12.13
2023-03-25T02:26:37.556Z,14.97
2023-03-25T02:32:15.736Z,12.87
2023-03-25T02:38:15.774Z,12.30
2023-03-25T02:44:01.552Z,12.50
2023-03-25T02:49:31.574Z,11.40
2023-03-25T02:54:57.733Z,11.40
2023-03-25T03:00:24.785Z,10.60
2023-03-25T03:05:50.929Z,11.63
2023-03-25T03:11:37.133Z,14.03
2023-03-25T03:17:30.922Z,14.67
2023-03-25T03:23:13.519Z,12.90
2023-03-25T03:28:59.796Z,14.13
2023-03-25T03:34:36.828Z,11.47
2023-03-25T03:40:01.523Z,13.83
2023-03-25T03:45:34.759Z,17.20
2023-03-25T03:51:18.052Z,14.18
2023-03-25T03:57:02.152Z,16.67
2023-03-25T04:02:47.995Z,13.37
2023-03-25T04:08:22.139Z,15.40
2023-03-25T04:13:48.958Z,17.98
2023-03-25T04:19:13.498Z,14.13
2023-03-25T04:24:37.883Z,14.60
2023-03-25T04:30:17.322Z,16.77
2023-03-25T04:35:40.840Z,14.20
2023-03-25T04:41:05.561Z,14.83
2023-03-25T04:46:30.241Z,18.33
2023-03-25T04:51:54.945Z,14.90
2023-03-25T04:57:17.577Z,16.87
2023-03-25T05:02:40.483Z,15.13
2023-03-25T05:08:11.843Z,15.57
2023-03-25T05:13:34.188Z,17.47
2023-03-25T05:18:56.540Z,17.53
2023-03-25T05:24:22.031Z,15.08
2023-03-25T05:29:44.843Z,16.80
2023-03-25T05:35:07.752Z,16.80
2023-03-25T05:40:30.231Z,15.40
2023-03-25T05:45:52.941Z,15.67
2023-03-25T05:51:18.446Z,12.90
2023-03-25T05:56:43.359Z,13.90
2023-03-25T06:02:08.020Z,14.18
2023-03-25T06:07:31.551Z,15.93
2023-03-25T06:12:54.496Z,16.15
2023-03-25T06:18:17.352Z,13.10
2023-03-25T06:23:40.204Z,14.83
2023-03-25T06:29:04.368Z,11.57
2023-03-25T06:34:26.745Z,13.00
2023-03-25T06:39:50.060Z,11.33
2023-03-25T06:45:14.149Z,10.23
2023-03-25T06:50:37.347Z,9.58
2023-03-25T06:56:02.346Z,10.08
2023-03-25T07:01:24.634Z,9.53
2023-03-25T07:06:46.938Z,9.30
2023-03-25T07:12:09.798Z,9.60
2023-03-25T07:17:33.272Z,9.30
2023-03-25T07:22:55.654Z,10.98
2023-03-25T07:28:18.129Z,8.47
2023-03-25T07:33:41.025Z,6.93
2023-03-25T07:39:03.626Z,7.12
2023-03-25T07:44:25.951Z,8.45
2023-03-25T07:49:49.882Z,8.88
2023-03-25T07:55:12.533Z,6.92
2023-03-25T08:00:37.901Z,9.48
2023-03-25T08:06:07.199Z,7.90
2023-03-25T08:11:29.586Z,7.50
2023-03-25T08:16:52.676Z,9.03
2023-03-25T08:22:15.368Z,10.48
2023-03-25T08:27:37.764Z,8.30
2023-03-25T08:33:00.221Z,9.10
2023-03-25T08:38:25.577Z,8.33
2023-03-25T08:43:48.423Z,8.85
2023-03-25T08:49:12.013Z,8.85
2023-03-25T08:54:34.851Z,8.75
2023-03-25T08:59:57.325Z,10.20
2023-03-25T09:05:20.287Z,7.08
2023-03-25T09:10:43.793Z,8.28
2023-03-25T09:16:06.082Z,9.97
2023-03-25T09:21:28.381Z,4.97
2023-03-25T09:26:51.614Z,8.58
2023-03-25T09:32:15.562Z,9.23
2023-03-25T09:37:38.293Z,9.53
2023-03-25T09:43:34.282Z,7.13
2023-03-25T09:49:00.726Z,9.00
2023-03-25T09:54:37.013Z,7.72
2023-03-25T10:00:04.477Z,8.05
2023-03-25T10:05:49.228Z,6.45
2023-03-25T10:11:41.460Z,6.60
2023-03-25T10:17:39.282Z,7.17
2023-03-25T10:23:33.452Z,8.78
2023-03-25T10:29:01.807Z,6.58
2023-03-25T10:34:36.200Z,7.70
2023-03-25T10:40:02.107Z,5.40
2023-03-25T10:45:36.069Z,14.20
2023-03-25T10:51:04.920Z,7.80
2023-03-25T10:56:43.613Z,5.12
2023-03-25T11:02:08.690Z,6.58
2023-03-25T11:07:47.721Z,7.78
2023-03-25T11:13:11.453Z,3.15
2023-03-25T11:18:45.985Z,4.50
2023-03-25T11:24:13.005Z,6.37
2023-03-25T11:29:38.861Z,5.35
2023-03-25T11:35:04.219Z,5.33
2023-03-25T11:40:29.981Z,6.08
2023-03-25T11:46:08.673Z,5.47
2023-03-25T11:51:35.768Z,4.28
2023-03-25T11:57:03.284Z,9.25
2023-03-25T12:02:40.005Z,4.45
2023-03-25T12:08:10.237Z,6.70
2023-03-25T12:19:29.248Z,4.67
2023-03-25T12:25:27.861Z,3.47
2023-03-25T12:31:34.076Z,5.03
2023-03-25T12:37:22.376Z,5.37
2023-03-25T12:43:04.840Z,8.08
2023-03-25T12:49:02.346Z,6.70
2023-03-25T12:54:41.690Z,4.45
2023-03-25T13:00:26.490Z,3.42
2023-03-25T13:06:20.426Z,1.10
2023-03-25T13:11:58.571Z,3.35
2023-03-25T13:17:46.463Z,3.72
2023-03-25T13:23:13.174Z,2.72
2023-03-25T13:28:40.018Z,2.33
2023-03-25T13:34:40.929Z,6.37
2023-03-25T13:40:20.212Z,4.05
2023-03-25T13:46:05.602Z,3.33
2023-03-25T13:51:29.260Z,3.30
2023-03-25T13:57:33.627Z,2.37
2023-03-25T14:03:30.776Z,2.15
2023-03-25T14:09:27.641Z,6.72
2023-03-25T14:14:58.352Z,2.67
2023-03-25T14:20:41.705Z,3.00
2023-03-25T14:26:10.777Z,4.50
2023-03-25T14:37:13.462Z,4.50
2023-03-25T14:42:48.940Z,3.08
2023-03-25T14:48:23.243Z,4.17
2023-03-25T14:53:39.477Z,3.80
2023-03-25T14:59:04.478Z,5.83
2023-03-25T15:04:38.771Z,4.03
2023-03-25T15:10:07.831Z,4.62
2023-03-25T15:16:02.566Z,4.23
2023-03-25T15:21:30.246Z,5.53
2023-03-25T15:27:02.714Z,4.28
2023-03-25T15:32:39.731Z,5.87
2023-03-25T15:38:16.998Z,7.00
2023-03-25T15:44:20.404Z,5.30
2023-03-25T15:50:07.008Z,3.08
2023-03-25T15:55:42.681Z,4.60
2023-03-25T16:01:10.169Z,3.85
2023-03-25T16:06:34.689Z,2.90
2023-03-25T16:11:59.637Z,3.65
2023-03-25T16:17:26.088Z,3.47
2023-03-25T16:22:50.363Z,4.75
2023-03-25T16:28:21.650Z,4.27
2023-03-25T16:33:47.440Z,3.33
2023-03-25T16:39:10.389Z,3.60
2023-03-25T16:44:37.915Z,3.52
2023-03-25T16:50:03.441Z,3.83
2023-03-25T16:55:59.340Z,4.85
2023-03-25T17:01:23.594Z,3.42
2023-03-25T17:06:56.350Z,4.70
2023-03-25T17:12:24.715Z,3.62
2023-03-25T17:18:02.872Z,3.12
2023-03-25T17:23:41.829Z,4.85
2023-03-25T17:29:18.540Z,4.85
2023-03-25T17:34:45.182Z,6.47
2023-03-25T17:40:13.144Z,7.03
2023-03-25T17:45:36.362Z,6.60
2023-03-25T17:51:07.258Z,5.33
2023-03-25T17:56:34.107Z,3.92
2023-03-25T18:01:56.655Z,5.60
2023-03-25T18:07:21.233Z,5.37
2023-03-25T18:12:43.780Z,4.17
2023-03-25T18:18:06.576Z,3.22
2023-03-25T18:23:30.642Z,4.12
2023-03-25T18:28:53.313Z,4.77
2023-03-25T18:34:15.771Z,4.30
2023-03-25T18:39:40.814Z,4.53
2023-03-25T18:45:03.155Z,4.85
2023-03-25T18:50:53.179Z,6.28
2023-03-25T18:56:19.034Z,5.10
2023-03-25T19:01:42.808Z,5.25
2023-03-25T19:07:05.120Z,5.83
2023-03-25T19:12:27.361Z,5.20
2023-03-25T19:17:50.639Z,7.30
2023-03-25T19:23:17.224Z,6.20
2023-03-25T19:28:42.074Z,4.58
2023-03-25T19:34:04.307Z,4.83
2023-03-25T19:39:26.568Z,3.83
2023-03-25T19:44:52.559Z,5.90
2023-03-25T19:50:21.618Z,6.20
2023-03-25T19:55:44.048Z,3.42
2023-03-25T20:01:07.088Z,9.53
2023-03-25T20:06:29.439Z,4.65
2023-03-25T20:11:51.714Z,5.90
2023-03-25T20:17:14.116Z,6.75
2023-03-25T20:22:36.421Z,4.47
2023-03-25T20:27:59.076Z,5.97
2023-03-25T20:33:21.896Z,3.70
2023-03-25T20:38:56.134Z,5.37
2023-03-25T20:44:08.915Z,4.60
2023-03-25T20:49:32.381Z,4.53
2023-03-25T20:54:56.144Z,3.47
2023-03-25T21:00:20.320Z,4.27
2023-03-25T21:05:44.712Z,5.00
2023-03-25T21:11:07.970Z,5.30
2023-03-25T21:16:31.417Z,4.25
2023-03-25T21:21:55.713Z,4.17
2023-03-25T21:27:18.213Z,5.03
2023-03-25T21:32:40.570Z,5.92
2023-03-25T21:38:04.000Z,5.70
2023-03-25T21:43:26.643Z,6.90
2023-03-25T21:48:50.863Z,5.85
2023-03-25T21:54:14.855Z,6.00
2023-03-25T21:59:37.134Z,5.83
2023-03-25T22:05:01.509Z,5.28
2023-03-25T22:10:24.722Z,6.90
2023-03-25T22:15:47.256Z,5.90
2023-03-25T22:21:29.768Z,5.93
2023-03-25T22:26:52.865Z,5.80
2023-03-25T22:32:15.118Z,6.35
2023-03-25T22:37:37.346Z,5.10
2023-03-25T22:42:59.595Z,6.22
2023-03-25T22:48:22.004Z,7.70
2023-03-25T22:53:45.729Z,5.12
2023-03-25T22:59:10.384Z,6.00
2023-03-25T23:04:32.796Z,6.27
2023-03-25T23:09:56.192Z,4.35
2023-03-25T23:15:18.707Z,6.97
2023-03-25T23:20:40.928Z,8.20
2023-03-25T23:26:22.375Z,4.92
2023-03-25T23:31:47.652Z,9.93
2023-03-25T23:37:10.634Z,7.90
2023-03-25T23:42:35.457Z,5.42
2023-03-25T23:47:57.327Z,9.38
2023-03-25T23:53:21.217Z,5.42
2023-03-25T23:58:43.537Z,5.85
